createdAt,value
2022-12-08T00:01:43.381Z,51.97
2022-12-08T00:07:04.769Z,51.43
2022-12-08T00:12:09.669Z,52.15
2022-12-08T00:17:16.426Z,51.45
2022-12-08T00:22:19.866Z,51.51
2022-12-08T00:27:23.305Z,52.15
2022-12-08T00:32:28.769Z,51.63
2022-12-08T00:37:32.145Z,53.24
2022-12-08T00:42:35.620Z,50.67
2022-12-08T00:47:40.428Z,51.30
2022-12-08T00:52:43.849Z,50.76
2022-12-08T00:57:47.278Z,51.07
2022-12-08T01:02:52.086Z,50.42
2022-12-08T01:07:55.563Z,50.58
2022-12-08T01:12:59.570Z,50.11
2022-12-08T01:18:04.435Z,49.91
2022-12-08T01:23:07.781Z,50.65
2022-12-08T01:28:11.255Z,50.65
2022-12-08T01:33:16.045Z,51.83
2022-12-08T01:38:23.742Z,50.92
2022-12-08T01:43:27.345Z,51.56
2022-12-08T01:48:32.393Z,51.82
2022-12-08T01:53:35.973Z,52.26
2022-12-08T01:58:42.809Z,51.49
2022-12-08T02:03:50.375Z,52.84
2022-12-08T02:08:55.155Z,51.02
2022-12-08T02:13:59.248Z,52.09
2022-12-08T02:19:32.331Z,50.84
2022-12-08T02:24:39.108Z,50.83
2022-12-08T02:30:07.954Z,50.95
2022-12-08T02:35:14.969Z,51.38
2022-12-08T02:40:23.921Z,51.23
2022-12-08T02:45:31.540Z,51.66
2022-12-08T02:50:36.419Z,51.27
2022-12-08T02:55:48.954Z,51.10
2022-12-08T03:01:12.929Z,50.60
2022-12-08T03:06:25.653Z,50.16
2022-12-08T03:11:35.720Z,50.34
2022-12-08T03:16:41.321Z,51.26
2022-12-08T03:21:50.977Z,50.78
2022-12-08T03:26:58.588Z,50.46
2022-12-08T03:32:06.916Z,49.75
2022-12-08T03:37:12.022Z,50.29
2022-12-08T03:42:15.541Z,50.64
2022-12-08T03:47:19.070Z,50.25
2022-12-08T03:52:23.967Z,50.73
2022-12-08T03:57:27.428Z,49.62
2022-12-08T04:02:30.946Z,50.28
2022-12-08T04:07:35.950Z,51.14
2022-12-08T04:12:39.517Z,51.34
2022-12-08T04:17:42.997Z,50.32
2022-12-08T04:22:47.922Z,49.89
2022-12-08T04:27:51.705Z,51.36
2022-12-08T04:32:55.517Z,50.86
2022-12-08T04:38:00.431Z,50.15
2022-12-08T04:43:04.041Z,50.18
2022-12-08T04:48:08.156Z,50.66
2022-12-08T04:53:14.113Z,50.43
2022-12-08T04:58:19.399Z,50.75
2022-12-08T05:03:28.461Z,51.71
2022-12-08T05:08:33.903Z,51.63
2022-12-08T05:13:37.649Z,50.35
2022-12-08T05:18:41.732Z,50.61
2022-12-08T05:23:46.635Z,51.19
2022-12-08T05:28:50.110Z,51.68
2022-12-08T05:33:54.033Z,51.53
2022-12-08T05:38:59.210Z,52.48
2022-12-08T05:44:02.772Z,51.16
2022-12-08T05:49:06.272Z,51.84
2022-12-08T05:54:11.190Z,51.47
2022-12-08T05:59:14.689Z,50.49
2022-12-08T06:04:18.273Z,51.16
2022-12-08T06:09:23.208Z,50.69
2022-12-08T06:14:26.726Z,52.08
2022-12-08T06:19:30.349Z,52.03
2022-12-08T06:24:35.381Z,52.65
2022-12-08T06:29:38.868Z,52.09
2022-12-08T06:34:42.329Z,52.44
2022-12-08T06:39:47.241Z,52.77
2022-12-08T06:44:51.578Z,52.24
2022-12-08T06:49:55.075Z,52.46
2022-12-08T06:55:00.018Z,51.79
2022-12-08T07:00:05.120Z,51.95
2022-12-08T07:05:09.175Z,52.27
2022-12-08T07:10:14.042Z,51.89
2022-12-08T07:15:17.774Z,53.14
2022-12-08T07:20:21.482Z,52.38
2022-12-08T07:25:26.716Z,53.04
2022-12-08T07:30:30.350Z,53.77
2022-12-08T07:35:35.184Z,52.25
2022-12-08T07:40:41.032Z,52.34
2022-12-08T07:45:44.571Z,52.21
2022-12-08T07:50:48.041Z,51.95
2022-12-08T07:55:52.817Z,52.91
2022-12-08T08:00:56.317Z,52.10
2022-12-08T08:06:03.844Z,52.96
2022-12-08T08:11:14.600Z,53.46
2022-12-08T08:16:22.600Z,52.54
2022-12-08T08:26:51.276Z,51.85
2022-12-08T08:31:55.969Z,52.19
2022-12-08T08:36:59.407Z,51.94
2022-12-08T08:42:04.296Z,53.62
2022-12-08T08:47:07.859Z,53.20
2022-12-08T08:52:11.632Z,51.48
2022-12-08T08:57:19.469Z,51.91
2022-12-08T09:02:25.691Z,52.07
2022-12-08T09:07:29.108Z,53.47
2022-12-08T09:12:33.887Z,53.17
2022-12-08T09:17:38.175Z,52.32
2022-12-08T09:22:41.655Z,51.69
2022-12-08T09:27:46.898Z,51.95
2022-12-08T09:32:50.312Z,51.52
2022-12-08T09:37:53.697Z,51.48
2022-12-08T09:43:26.204Z,52.18
2022-12-08T09:48:36.916Z,51.92
2022-12-08T09:53:43.868Z,52.12
2022-12-08T09:58:52.646Z,52.21
2022-12-08T10:03:56.447Z,51.51
2022-12-08T10:09:04.548Z,52.36
2022-12-08T10:14:16.842Z,50.60
2022-12-08T10:19:22.412Z,51.42
2022-12-08T10:24:28.056Z,51.41
2022-12-08T10:29:32.803Z,50.57
2022-12-08T10:34:36.173Z,51.42
2022-12-08T10:39:43.676Z,51.03
2022-12-08T10:44:56.955Z,51.32
2022-12-08T10:50:18.958Z,51.09
2022-12-08T10:55:23.200Z,50.88
2022-12-08T11:00:29.132Z,50.25
2022-12-08T11:05:34.978Z,50.64
2022-12-08T11:10:44.066Z,51.14
2022-12-08T11:15:48.878Z,50.49
2022-12-08T11:21:01.694Z,49.65
2022-12-08T11:26:11.683Z,50.82
2022-12-08T11:31:24.071Z,51.02
2022-12-08T11:36:28.602Z,50.44
2022-12-08T11:41:35.584Z,49.35
2022-12-08T11:46:45.051Z,49.78
2022-12-08T11:51:54.581Z,49.50
2022-12-08T11:57:00.521Z,49.21
2022-12-08T12:02:06.545Z,49.29
2022-12-08T12:07:26.562Z,49.71
2022-12-08T12:12:43.931Z,50.08
2022-12-08T12:17:52.016Z,51.21
2022-12-08T12:22:59.183Z,49.14
2022-12-08T12:28:04.867Z,48.88
2022-12-08T12:33:13.402Z,48.92
2022-12-08T12:38:40.233Z,48.09
2022-12-08T12:44:25.084Z,48.38
2022-12-08T12:49:51.061Z,48.95
2022-12-08T12:55:42.240Z,49.27
2022-12-08T13:00:46.996Z,48.72
2022-12-08T13:05:52.817Z,48.25
2022-12-08T13:11:01.065Z,49.07
2022-12-08T13:16:19.246Z,48.40
2022-12-08T13:21:25.060Z,49.16
2022-12-08T13:26:29.185Z,49.49
2022-12-08T13:31:46.628Z,48.26
2022-12-08T13:37:02.482Z,48.39
2022-12-08T13:42:08.585Z,49.02
2022-12-08T13:47:33.411Z,49.16
2022-12-08T13:58:06.579Z,49.48
2022-12-08T14:03:14.203Z,48.73
2022-12-08T14:08:57.070Z,50.33
2022-12-08T14:13:45.637Z,50.00
2022-12-08T14:18:52.278Z,48.74
2022-12-08T14:23:55.730Z,48.49
2022-12-08T14:28:59.232Z,48.74
2022-12-08T14:34:04.141Z,48.10
2022-12-08T14:39:07.650Z,47.99
2022-12-08T14:44:24.412Z,48.02
2022-12-08T14:49:36.430Z,47.64
2022-12-08T14:54:40.611Z,47.73
2022-12-08T14:59:44.702Z,47.41
2022-12-08T15:04:50.936Z,47.68
2022-12-08T15:10:20.486Z,47.79
2022-12-08T15:15:24.572Z,47.86
2022-12-08T15:20:35.613Z,48.40
2022-12-08T15:25:39.303Z,48.04
2022-12-08T15:30:42.925Z,48.07
2022-12-08T15:35:48.431Z,47.73
2022-12-08T15:40:52.340Z,47.57
2022-12-08T15:46:00.253Z,47.87
2022-12-08T15:51:05.355Z,47.83
2022-12-08T16:01:32.965Z,48.00
2022-12-08T16:07:19.782Z,48.13
2022-12-08T16:12:19.261Z,48.10
2022-12-08T16:17:22.760Z,48.26
2022-12-08T16:28:12.475Z,48.47
2022-12-08T16:33:17.713Z,48.08
2022-12-08T16:38:22.681Z,47.80
2022-12-08T16:43:26.284Z,47.75
2022-12-08T16:48:29.788Z,48.03
2022-12-08T16:53:34.623Z,47.95
2022-12-08T16:58:38.090Z,48.08
2022-12-08T17:03:51.620Z,48.11
2022-12-08T17:09:06.280Z,47.81
2022-12-08T17:14:10.105Z,47.67
2022-12-08T17:19:15.344Z,48.23
2022-12-08T17:24:22.226Z,47.71
2022-12-08T17:29:26.092Z,47.69
2022-12-08T17:34:29.526Z,47.75
2022-12-08T17:39:34.424Z,48.27
2022-12-08T17:44:37.948Z,48.35
2022-12-08T17:49:41.421Z,48.20
2022-12-08T17:54:46.279Z,47.92
2022-12-08T17:59:49.734Z,48.47
2022-12-08T18:04:53.148Z,47.88
2022-12-08T18:09:58.014Z,48.19
2022-12-08T18:15:01.439Z,48.66
2022-12-08T18:20:06.350Z,49.33
2022-12-08T18:25:12.180Z,49.52
2022-12-08T18:30:18.009Z,48.88
2022-12-08T18:35:21.520Z,48.81
2022-12-08T18:40:26.423Z,48.48
2022-12-08T18:45:29.867Z,48.19
2022-12-08T18:50:33.392Z,48.34
2022-12-08T18:55:39.672Z,48.03
2022-12-08T19:00:43.311Z,48.23
2022-12-08T19:05:46.857Z,47.83
2022-12-08T19:10:51.753Z,47.64
2022-12-08T19:15:55.375Z,47.99
2022-12-08T19:20:59.614Z,48.24
2022-12-08T19:26:05.041Z,48.82
2022-12-08T19:31:09.772Z,48.86
2022-12-08T19:36:17.948Z,49.14
2022-12-08T19:41:52.735Z,48.32
2022-12-08T19:46:56.973Z,48.37
2022-12-08T19:52:00.701Z,48.02
2022-12-08T19:57:06.077Z,48.16
2022-12-08T20:02:11.154Z,49.30
2022-12-08T20:07:14.743Z,48.63
2022-12-08T20:12:19.531Z,48.30
2022-12-08T20:17:22.972Z,48.18
2022-12-08T20:22:26.458Z,48.03
2022-12-08T20:27:31.487Z,48.44
2022-12-08T20:32:34.889Z,48.80
2022-12-08T20:37:38.255Z,48.96
2022-12-08T20:42:43.361Z,48.71
2022-12-08T20:47:46.697Z,49.22
2022-12-08T20:52:50.129Z,49.21
2022-12-08T20:57:55.137Z,49.12
2022-12-08T21:02:58.685Z,49.51
2022-12-08T21:08:02.454Z,49.13
2022-12-08T21:13:08.137Z,49.04
2022-12-08T21:18:11.656Z,48.63
2022-12-08T21:23:15.500Z,48.40
2022-12-08T21:28:20.306Z,48.44
2022-12-08T21:33:23.764Z,48.35
2022-12-08T21:38:28.356Z,47.89
2022-12-08T21:43:33.253Z,48.22
2022-12-08T21:48:36.908Z,48.80
2022-12-08T21:53:40.478Z,48.29
2022-12-08T21:58:45.263Z,47.89
2022-12-08T22:03:48.816Z,48.05
2022-12-08T22:08:52.448Z,48.63
2022-12-08T22:13:57.322Z,48.67
2022-12-08T22:19:01.072Z,48.72
2022-12-08T22:24:04.607Z,48.53
2022-12-08T22:29:09.940Z,48.38
2022-12-08T22:34:14.415Z,48.30
2022-12-08T22:39:17.883Z,48.26
2022-12-08T22:44:22.711Z,48.38
2022-12-08T22:49:26.444Z,48.61
2022-12-08T22:54:29.861Z,48.55
2022-12-08T22:59:34.789Z,48.22
2022-12-08T23:04:38.492Z,48.38
2022-12-08T23:09:42.219Z,48.29
2022-12-08T23:14:47.923Z,48.07
2022-12-08T23:19:52.356Z,48.15
2022-12-08T23:24:55.756Z,48.06
2022-12-08T23:30:00.533Z,47.94
2022-12-08T23:35:03.990Z,48.49
2022-12-08T23:40:08.885Z,48.14
2022-12-08T23:45:14.134Z,47.89
2022-12-08T23:50:17.665Z,47.96
2022-12-08T23:55:21.176Z,48.38
